createdAt,value
2023-02-11T00:01:09.987Z,44.16
2023-02-11T00:03:55.853Z,44.31
2023-02-11T00:06:41.813Z,44.78
2023-02-11T00:09:29.349Z,44.49
2023-02-11T00:12:17.003Z,43.43
2023-02-11T00:15:02.859Z,44.23
2023-02-11T00:17:48.824Z,47.24
2023-02-11T00:20:34.727Z,48.84
2023-02-11T00:23:20.720Z,46.66
2023-02-11T00:26:06.580Z,47.50
2023-02-11T00:28:52.477Z,48.83
2023-02-11T00:31:38.421Z,48.52
2023-02-11T00:34:24.667Z,50.94
2023-02-11T00:37:10.616Z,50.32
2023-02-11T00:39:56.374Z,49.31
2023-02-11T00:42:42.268Z,52.03
2023-02-11T00:45:28.179Z,52.84
2023-02-11T00:48:14.054Z,53.10
2023-02-11T00:51:00.106Z,51.30
2023-02-11T00:53:46.050Z,51.29
2023-02-11T00:56:31.990Z,53.38
2023-02-11T00:59:18.108Z,53.22
2023-02-11T01:02:03.918Z,54.10
2023-02-11T01:04:49.978Z,55.12
2023-02-11T01:07:36.353Z,56.40
2023-02-11T01:10:22.182Z,55.12
2023-02-11T01:13:08.079Z,57.16
2023-02-11T01:15:54.117Z,59.26
2023-02-11T01:18:40.404Z,58.02
2023-02-11T01:21:26.145Z,57.78
2023-02-11T01:24:11.979Z,58.35
2023-02-11T01:26:57.912Z,59.35
2023-02-11T01:29:43.804Z,60.20
2023-02-11T01:32:29.684Z,59.02
2023-02-11T01:35:15.560Z,57.32
2023-02-11T01:38:01.438Z,56.96
2023-02-11T01:40:47.302Z,58.92
2023-02-11T01:43:33.225Z,59.75
2023-02-11T01:46:19.073Z,60.91
2023-02-11T01:49:05.326Z,59.45
2023-02-11T01:51:51.553Z,59.82
2023-02-11T01:54:37.312Z,59.78
2023-02-11T01:57:23.167Z,60.67
2023-02-11T02:00:09.051Z,61.92
2023-02-11T02:02:54.944Z,62.67
2023-02-11T02:05:40.807Z,63.57
2023-02-11T02:08:26.695Z,61.69
2023-02-11T02:11:12.676Z,62.90
2023-02-11T02:13:58.631Z,63.57
2023-02-11T02:16:44.449Z,63.93
2023-02-11T02:19:30.462Z,63.58
2023-02-11T02:22:16.211Z,64.09
2023-02-11T02:25:02.209Z,62.01
2023-02-11T02:27:48.222Z,63.98
2023-02-11T02:30:34.192Z,64.72
2023-02-11T02:33:23.329Z,62.00
2023-02-11T02:36:09.617Z,61.16
2023-02-11T02:38:55.450Z,62.02
2023-02-11T02:41:41.373Z,61.84
2023-02-11T02:44:27.359Z,59.60
2023-02-11T02:47:13.409Z,57.82
2023-02-11T02:49:59.403Z,57.60
2023-02-11T02:52:47.295Z,56.23
2023-02-11T02:55:33.164Z,53.80
2023-02-11T02:58:19.266Z,53.24
2023-02-11T03:01:05.038Z,52.27
2023-02-11T03:03:50.893Z,51.73
2023-02-11T03:06:36.863Z,51.96
2023-02-11T03:09:22.653Z,49.05
2023-02-11T03:12:08.497Z,48.76
2023-02-11T03:14:54.352Z,48.46
2023-02-11T03:17:40.254Z,45.19
2023-02-11T03:20:26.234Z,44.19
2023-02-11T03:23:12.103Z,44.42
2023-02-11T03:25:57.971Z,44.14
2023-02-11T03:28:43.877Z,42.66
2023-02-11T03:31:29.855Z,40.94
2023-02-11T03:34:16.127Z,39.65
2023-02-11T03:37:01.959Z,38.82
2023-02-11T03:39:47.820Z,37.91
2023-02-11T03:42:33.769Z,36.89
2023-02-11T03:45:19.529Z,38.21
2023-02-11T03:48:05.405Z,36.49
2023-02-11T03:50:51.494Z,35.75
2023-02-11T03:53:37.405Z,34.21
2023-02-11T03:56:23.343Z,33.36
2023-02-11T03:59:09.309Z,32.05
2023-02-11T04:01:55.209Z,31.60
2023-02-11T04:04:41.107Z,30.90
2023-02-11T04:07:26.822Z,31.60
2023-02-11T04:10:12.779Z,31.20
2023-02-11T04:13:18.932Z,30.91
2023-02-11T04:16:04.876Z,32.55
2023-02-11T04:18:50.831Z,32.54
2023-02-11T04:21:36.756Z,29.58
2023-02-11T04:24:22.622Z,27.89
2023-02-11T04:27:08.714Z,26.24
2023-02-11T04:29:54.685Z,24.71
2023-02-11T04:32:40.534Z,24.49
2023-02-11T04:35:26.542Z,23.17
2023-02-11T04:38:12.379Z,23.25
2023-02-11T04:40:58.419Z,23.80
2023-02-11T04:43:44.362Z,23.64
2023-02-11T04:46:30.268Z,24.50
2023-02-11T04:49:16.277Z,24.17
2023-02-11T04:52:04.252Z,24.04
2023-02-11T04:54:50.086Z,24.83
2023-02-11T04:57:36.147Z,23.56
2023-02-11T05:00:22.049Z,24.35
2023-02-11T05:03:07.970Z,24.54
2023-02-11T05:05:53.911Z,25.20
2023-02-11T05:08:39.645Z,26.24
2023-02-11T05:11:25.689Z,27.92
2023-02-11T05:14:11.532Z,29.34
2023-02-11T05:16:57.472Z,30.09
2023-02-11T05:19:43.728Z,31.34
2023-02-11T05:22:29.610Z,32.30
2023-02-11T05:25:15.482Z,32.37
2023-02-11T05:28:01.356Z,34.11
2023-02-11T05:30:47.204Z,34.05
2023-02-11T05:33:33.192Z,35.08
2023-02-11T05:36:19.277Z,34.37
2023-02-11T05:39:05.067Z,36.12
2023-02-11T05:41:51.066Z,38.65
2023-02-11T05:44:37.017Z,40.04
2023-02-11T05:47:23.318Z,39.39
2023-02-11T05:50:09.279Z,38.35
2023-02-11T05:52:55.094Z,37.49
2023-02-11T05:55:41.422Z,37.22
2023-02-11T05:58:27.485Z,37.19
2023-02-11T06:01:13.275Z,37.19
2023-02-11T06:03:59.268Z,36.43
2023-02-11T06:06:45.290Z,35.02
2023-02-11T06:09:31.124Z,31.97
2023-02-11T06:12:17.026Z,31.26
2023-02-11T06:15:02.879Z,32.63
2023-02-11T06:17:48.814Z,32.26
2023-02-11T06:20:34.719Z,34.42
2023-02-11T06:23:20.551Z,31.02
2023-02-11T06:26:06.530Z,31.73
2023-02-11T06:28:52.457Z,33.47
2023-02-11T06:31:38.436Z,33.68
2023-02-11T06:34:24.757Z,35.53
2023-02-11T06:37:10.521Z,35.01
2023-02-11T06:39:56.440Z,33.55
2023-02-11T06:42:42.374Z,32.80
2023-02-11T06:45:28.182Z,32.58
2023-02-11T06:48:14.067Z,34.16
2023-02-11T06:50:59.920Z,33.85
2023-02-11T06:53:47.924Z,32.67
2023-02-11T06:56:33.760Z,33.31
2023-02-11T06:59:19.676Z,35.27
2023-02-11T07:02:05.762Z,38.60
2023-02-11T07:04:51.766Z,38.90
2023-02-11T07:07:37.689Z,37.74
2023-02-11T07:10:23.698Z,38.51
2023-02-11T07:13:09.656Z,38.86
2023-02-11T07:15:55.649Z,36.78
2023-02-11T07:18:41.801Z,37.59
2023-02-11T07:21:27.616Z,35.14
2023-02-11T07:24:13.637Z,36.11
2023-02-11T07:26:59.636Z,38.29
2023-02-11T07:29:45.425Z,39.38
2023-02-11T07:32:31.467Z,39.27
2023-02-11T07:35:17.400Z,38.63
2023-02-11T07:38:03.335Z,40.54
2023-02-11T07:40:49.241Z,39.79
2023-02-11T07:43:35.270Z,41.21
2023-02-11T07:46:21.388Z,42.50
2023-02-11T07:49:07.664Z,41.49
2023-02-11T07:51:53.510Z,42.29
2023-02-11T07:54:39.475Z,45.96
2023-02-11T07:57:25.354Z,47.05
2023-02-11T08:00:11.313Z,49.46
2023-02-11T08:02:59.251Z,43.40
2023-02-11T08:05:45.102Z,45.03
2023-02-11T08:08:31.000Z,43.61
2023-02-11T08:11:16.988Z,44.36
2023-02-11T08:14:02.958Z,45.19
2023-02-11T08:16:49.003Z,44.59
2023-02-11T08:19:35.322Z,44.91
2023-02-11T08:22:21.235Z,45.28
2023-02-11T08:25:07.198Z,46.35
2023-02-11T08:27:53.158Z,47.26
2023-02-11T08:30:39.051Z,47.47
2023-02-11T08:33:26.934Z,46.55
2023-02-11T08:36:12.888Z,48.22
2023-02-11T08:39:12.141Z,48.24
2023-02-11T08:42:03.886Z,49.10
2023-02-11T08:44:49.998Z,48.27
2023-02-11T08:47:35.850Z,49.11
2023-02-11T08:50:21.756Z,46.91
2023-02-11T08:53:07.580Z,47.25
2023-02-11T08:55:53.648Z,45.73
2023-02-11T08:58:39.706Z,47.39
2023-02-11T09:01:25.701Z,45.23
2023-02-11T09:04:11.644Z,44.33
2023-02-11T09:06:57.564Z,43.26
2023-02-11T09:09:43.453Z,40.84
2023-02-11T09:12:29.330Z,42.81
2023-02-11T09:15:15.139Z,42.96
2023-02-11T09:18:00.919Z,44.60
2023-02-11T09:20:46.842Z,41.82
2023-02-11T09:23:32.798Z,40.14
2023-02-11T09:26:18.664Z,42.09
2023-02-11T09:29:04.602Z,43.07
2023-02-11T09:31:50.596Z,45.51
2023-02-11T09:34:36.820Z,44.88
2023-02-11T09:37:22.647Z,43.58
2023-02-11T09:40:08.617Z,42.44
2023-02-11T09:42:55.304Z,43.98
2023-02-11T09:45:41.949Z,43.37
2023-02-11T09:48:27.780Z,44.08
2023-02-11T09:51:13.635Z,44.14
2023-02-11T09:54:01.289Z,43.11
2023-02-11T09:56:48.258Z,44.25
2023-02-11T09:59:34.622Z,44.12
2023-02-11T10:02:20.543Z,43.01
2023-02-11T10:05:06.448Z,42.55
2023-02-11T10:07:52.269Z,42.98
2023-02-11T10:10:38.106Z,41.21
2023-02-11T10:13:24.073Z,43.98
2023-02-11T10:16:09.846Z,40.99
2023-02-11T10:18:55.754Z,40.09
2023-02-11T10:21:41.649Z,38.43
2023-02-11T10:24:27.488Z,35.92
2023-02-11T10:27:13.358Z,34.45
2023-02-11T10:29:59.266Z,33.81
2023-02-11T11:51:28.200Z,43.36
2023-02-11T11:54:14.219Z,46.21
2023-02-11T11:57:00.222Z,44.40
2023-02-11T11:59:46.083Z,44.84
2023-02-11T12:02:31.850Z,43.33
2023-02-11T12:05:17.710Z,45.78
2023-02-11T12:08:03.754Z,44.07
2023-02-11T12:10:49.989Z,41.95
2023-02-11T12:13:35.961Z,41.23
2023-02-11T12:16:22.060Z,69.65
2023-02-11T12:19:07.991Z,44.35
2023-02-11T12:21:53.937Z,42.60
2023-02-11T12:24:41.872Z,43.25
2023-02-11T12:27:27.801Z,41.94
2023-02-11T12:30:13.583Z,41.91
2023-02-11T12:32:59.614Z,41.08
2023-02-11T12:35:45.414Z,41.02
2023-02-11T12:38:31.307Z,40.44
2023-02-11T12:41:17.332Z,39.67
2023-02-11T12:44:03.177Z,40.54
2023-02-11T12:46:49.046Z,39.74
2023-02-11T12:49:34.848Z,39.72
2023-02-11T12:52:20.684Z,39.92
2023-02-11T12:55:06.536Z,38.58
2023-02-11T12:57:52.378Z,37.24
2023-02-11T13:00:38.241Z,36.30
2023-02-11T13:03:24.138Z,35.49
2023-02-11T13:06:09.941Z,34.95
2023-02-11T13:08:55.756Z,35.41
2023-02-11T13:11:41.602Z,34.10
2023-02-11T13:14:27.425Z,32.97
2023-02-11T13:17:13.298Z,32.80
2023-02-11T13:19:59.256Z,31.73
2023-02-11T13:22:45.082Z,31.88
2023-02-11T13:25:30.838Z,31.08
2023-02-11T13:28:16.902Z,29.36
2023-02-11T13:31:04.902Z,27.79
2023-02-11T13:33:53.190Z,25.95
2023-02-11T13:36:38.904Z,23.94
2023-02-11T13:39:24.812Z,25.64
2023-02-11T13:42:10.733Z,35.48
2023-02-11T13:44:56.491Z,48.79
2023-02-11T13:47:42.363Z,27.48
2023-02-11T13:50:28.170Z,24.85
2023-02-11T13:53:16.033Z,25.30
2023-02-11T13:56:02.163Z,25.79
2023-02-11T13:58:47.888Z,28.28
2023-02-11T14:01:33.851Z,28.01
2023-02-11T14:04:19.806Z,31.96
2023-02-11T14:07:05.671Z,31.64
2023-02-11T14:09:51.610Z,31.58
2023-02-11T14:12:37.512Z,33.71
2023-02-11T14:15:23.510Z,28.63
2023-02-11T14:18:09.391Z,29.69
2023-02-11T14:20:55.184Z,39.45
2023-02-11T14:23:41.146Z,41.16
2023-02-11T14:26:27.030Z,40.82
2023-02-11T14:29:12.769Z,43.47
2023-02-11T14:31:58.672Z,43.35
2023-02-11T14:34:44.911Z,42.26
2023-02-11T14:37:30.726Z,43.58
2023-02-11T14:40:16.702Z,41.99
2023-02-11T14:43:02.592Z,38.70
2023-02-11T14:45:48.588Z,40.80
2023-02-11T14:48:34.390Z,37.75
2023-02-11T14:51:20.323Z,38.56
2023-02-11T14:54:06.298Z,38.36
2023-02-11T14:56:52.123Z,39.99
2023-02-11T14:59:38.144Z,38.60
2023-02-11T15:02:24.200Z,38.22
2023-02-11T15:05:10.181Z,37.88
2023-02-11T15:07:56.133Z,35.34
2023-02-11T15:10:41.851Z,36.20
2023-02-11T15:13:27.833Z,36.37
2023-02-11T15:16:18.230Z,36.73
2023-02-11T15:19:04.322Z,37.96
2023-02-11T15:21:50.423Z,38.28
2023-02-11T15:24:36.332Z,38.28
2023-02-11T15:27:22.068Z,38.24
2023-02-11T15:30:07.966Z,39.12
2023-02-11T15:32:54.041Z,39.31
2023-02-11T15:35:40.128Z,40.58
2023-02-11T15:38:26.003Z,40.70
2023-02-11T15:41:11.975Z,40.37
2023-02-11T15:43:57.757Z,41.16
2023-02-11T15:46:43.751Z,42.24
2023-02-11T15:49:29.605Z,43.46
2023-02-11T15:52:15.493Z,42.93
2023-02-11T15:55:01.647Z,43.33
2023-02-11T15:57:47.446Z,43.90
2023-02-11T16:00:33.369Z,44.45
2023-02-11T16:03:19.930Z,45.39
2023-02-11T16:06:05.852Z,44.90
2023-02-11T16:08:51.848Z,45.44
2023-02-11T16:11:37.686Z,46.01
2023-02-11T16:14:23.606Z,46.11
2023-02-11T16:17:09.483Z,46.55
2023-02-11T16:19:55.484Z,47.42
2023-02-11T16:22:41.338Z,47.02
2023-02-11T16:25:27.003Z,46.09
2023-02-11T16:28:12.835Z,46.39
2023-02-11T16:31:01.533Z,46.81
2023-02-11T16:33:48.311Z,48.85
2023-02-11T16:36:34.124Z,48.65
2023-02-11T16:39:21.066Z,45.30
2023-02-11T16:42:07.620Z,44.36
2023-02-11T16:44:53.918Z,45.24
2023-02-11T16:47:39.810Z,45.48
2023-02-11T16:50:25.651Z,45.24
2023-02-11T16:53:11.497Z,45.00
2023-02-11T16:55:57.584Z,45.00
2023-02-11T16:58:43.462Z,44.32
2023-02-11T17:01:29.641Z,44.22
2023-02-11T17:04:15.901Z,44.79
2023-02-11T17:07:01.732Z,44.80
2023-02-11T17:09:47.623Z,45.82
2023-02-11T17:12:33.510Z,44.89
2023-02-11T17:15:19.445Z,45.89
2023-02-11T17:18:05.443Z,46.26
2023-02-11T17:20:51.156Z,46.16
2023-02-11T17:23:36.980Z,44.37
2023-02-11T17:26:22.818Z,44.23
2023-02-11T17:29:08.654Z,45.25
2023-02-11T17:31:54.678Z,45.53
2023-02-11T17:34:40.901Z,46.17
2023-02-11T17:37:26.778Z,44.50
2023-02-11T17:40:12.720Z,43.20
2023-02-11T17:42:58.594Z,42.41
2023-02-11T17:45:44.542Z,41.74
2023-02-11T17:48:30.504Z,44.42
2023-02-11T17:51:16.442Z,42.73
2023-02-11T17:54:02.366Z,42.43
2023-02-11T17:56:50.331Z,43.79
2023-02-11T17:59:36.749Z,43.91
2023-02-11T18:02:22.669Z,43.15
2023-02-11T18:05:10.403Z,41.19
2023-02-11T18:07:56.335Z,40.56
2023-02-11T18:10:42.160Z,39.74
2023-02-11T18:13:27.989Z,39.88
2023-02-11T18:16:13.882Z,40.10
2023-02-11T18:18:59.688Z,40.19
2023-02-11T18:21:45.611Z,39.44
2023-02-11T18:24:31.603Z,37.76
2023-02-11T18:27:17.455Z,37.59
2023-02-11T18:30:03.391Z,38.80
2023-02-11T18:32:49.297Z,39.00
2023-02-11T18:35:35.071Z,39.66
2023-02-11T18:38:21.156Z,39.90
2023-02-11T18:41:07.222Z,40.45
2023-02-11T18:43:53.119Z,39.29
2023-02-11T18:46:39.077Z,37.78
2023-02-11T18:49:24.990Z,36.47
2023-02-11T18:52:11.010Z,37.17
2023-02-11T18:54:57.042Z,36.70
2023-02-11T18:57:42.818Z,36.06
2023-02-11T19:00:28.681Z,33.19
2023-02-11T19:03:14.508Z,34.05
2023-02-11T19:06:00.456Z,33.39
2023-02-11T19:08:46.271Z,32.87
2023-02-11T19:11:32.217Z,32.41
2023-02-11T19:14:18.211Z,32.30
2023-02-11T19:17:04.217Z,31.95
2023-02-11T19:19:50.116Z,29.78
2023-02-11T19:22:38.058Z,25.52
2023-02-11T19:25:24.029Z,22.32
2023-02-11T19:28:09.849Z,20.49
2023-02-11T19:30:55.874Z,19.60
2023-02-11T19:33:42.183Z,19.07
2023-02-11T19:36:28.067Z,20.17
2023-02-11T19:39:14.040Z,19.56
2023-02-11T19:42:00.011Z,20.37
2023-02-11T19:44:45.904Z,20.48
2023-02-11T19:47:31.822Z,21.35
2023-02-11T19:50:17.741Z,21.85
2023-02-11T19:53:03.696Z,22.10
2023-02-11T19:55:50.035Z,23.58
2023-02-11T19:58:36.151Z,24.07
2023-02-11T20:01:22.254Z,25.27
2023-02-11T20:04:08.184Z,24.25
2023-02-11T20:06:54.162Z,24.47
2023-02-11T20:09:40.043Z,26.82
2023-02-11T20:12:25.987Z,28.77
2023-02-11T20:15:12.022Z,29.26
2023-02-11T20:17:57.697Z,29.74
2023-02-11T20:20:43.510Z,30.60
2023-02-11T20:23:29.255Z,30.32
2023-02-11T20:26:15.047Z,30.04
2023-02-11T20:29:01.074Z,30.43
2023-02-11T20:31:47.067Z,29.27
2023-02-11T20:34:33.424Z,27.27
2023-02-11T20:37:19.442Z,26.85
2023-02-11T20:40:05.188Z,28.27
2023-02-11T20:42:51.158Z,29.00
2023-02-11T20:45:37.032Z,29.76
2023-02-11T20:48:23.855Z,29.28
2023-02-11T20:51:09.742Z,30.00
2023-02-11T20:53:55.696Z,29.90
2023-02-11T20:56:41.558Z,30.11
2023-02-11T20:59:27.429Z,30.64
2023-02-11T21:02:13.262Z,30.03
2023-02-11T21:04:59.291Z,30.69
2023-02-11T21:07:45.299Z,30.17
2023-02-11T21:10:31.249Z,30.44
2023-02-11T21:13:17.367Z,30.54
2023-02-11T21:16:03.349Z,30.43
2023-02-11T21:18:49.291Z,31.40
2023-02-11T21:21:35.341Z,31.73
2023-02-11T21:24:21.121Z,32.29
2023-02-11T21:27:06.945Z,31.94
2023-02-11T21:29:54.516Z,31.59
2023-02-11T21:32:40.747Z,31.99
2023-02-11T21:35:26.629Z,31.87
2023-02-11T21:38:12.616Z,31.56
2023-02-11T21:40:58.429Z,31.70
2023-02-11T21:43:44.379Z,31.72
2023-02-11T21:46:30.277Z,32.19
2023-02-11T21:49:16.149Z,31.68
2023-02-11T21:52:02.061Z,31.70
2023-02-11T21:54:47.862Z,30.96
2023-02-11T21:57:33.764Z,32.53
2023-02-11T22:00:19.629Z,31.62
2023-02-11T22:03:05.514Z,32.25
2023-02-11T22:05:51.346Z,31.83
2023-02-11T22:08:37.066Z,32.02
2023-02-11T22:11:23.021Z,30.89
2023-02-11T22:14:08.875Z,31.78
2023-02-11T22:16:54.692Z,30.84
2023-02-11T22:19:40.637Z,30.95
2023-02-11T22:22:26.377Z,31.54
2023-02-11T22:25:12.289Z,31.56
2023-02-11T22:27:58.172Z,31.11
2023-02-11T22:30:44.111Z,31.41
2023-02-11T22:33:29.989Z,30.32
2023-02-11T22:36:15.843Z,31.47
2023-02-11T22:39:01.843Z,31.34
2023-02-11T22:41:47.753Z,31.58
2023-02-11T22:44:33.595Z,31.88
2023-02-11T22:47:19.406Z,32.43
2023-02-11T22:50:05.237Z,31.98
2023-02-11T22:52:51.001Z,32.27
2023-02-11T22:55:37.026Z,32.42
2023-02-11T22:58:22.904Z,33.40
2023-02-11T23:01:08.724Z,33.86
2023-02-11T23:03:54.516Z,33.55
2023-02-11T23:06:40.406Z,33.33
2023-02-11T23:09:26.302Z,33.33
2023-02-11T23:12:12.334Z,34.32
2023-02-11T23:14:58.235Z,34.01
2023-02-11T23:17:44.145Z,34.54
2023-02-11T23:20:30.087Z,34.26
2023-02-11T23:23:15.911Z,34.50
2023-02-11T23:26:02.030Z,36.54
2023-02-11T23:28:47.903Z,36.04
2023-02-11T23:31:34.196Z,36.15
2023-02-11T23:34:20.505Z,37.04
2023-02-11T23:37:06.375Z,36.61
2023-02-11T23:39:54.259Z,37.39
2023-02-11T23:42:40.155Z,37.22
2023-02-11T23:45:26.085Z,37.10
2023-02-11T23:48:12.056Z,37.58
2023-02-11T23:50:57.889Z,37.56
2023-02-11T23:54:27.182Z,37.86
2023-02-11T23:57:13.112Z,37.20
2023-02-11T23:59:58.825Z,37.39
